createdAt,value
2019-03-16T00:01:04.681Z,62.11
2019-03-16T00:03:35.040Z,62.03
2019-03-16T00:06:05.375Z,61.73
2019-03-16T00:08:36.751Z,61.94
2019-03-16T00:11:09.226Z,61.95
2019-03-16T00:13:39.398Z,61.81
2019-03-16T00:16:09.710Z,61.92
2019-03-16T00:18:41.334Z,61.97
2019-03-16T00:21:13.418Z,62.00
2019-03-16T00:23:47.288Z,62.05
2019-03-16T00:26:17.878Z,61.90
2019-03-16T00:28:48.353Z,61.90
2019-03-16T00:31:18.934Z,61.90
2019-03-16T00:33:49.826Z,62.21
2019-03-16T00:36:20.272Z,61.97
2019-03-16T00:38:51.708Z,61.89
2019-03-16T00:41:22.325Z,61.83
2019-03-16T00:43:55.292Z,61.83
2019-03-16T00:46:25.824Z,61.98
2019-03-16T00:48:56.291Z,62.05
2019-03-16T00:51:26.656Z,61.94
2019-03-16T00:53:56.978Z,62.06
2019-03-16T00:56:28.520Z,62.06
2019-03-16T00:58:59.014Z,62.34
2019-03-16T01:01:30.102Z,62.58
2019-03-16T01:04:00.664Z,62.79
2019-03-16T01:06:31.862Z,62.97
2019-03-16T01:09:02.195Z,63.28
2019-03-16T01:11:32.900Z,63.60
2019-03-16T01:14:03.176Z,63.64
2019-03-16T01:16:36.495Z,63.92
2019-03-16T01:19:06.850Z,64.32
2019-03-16T01:21:37.174Z,64.31
2019-03-16T01:24:08.453Z,64.76
2019-03-16T01:26:38.877Z,65.10
2019-03-16T01:29:09.563Z,65.22
2019-03-16T01:31:39.892Z,65.28
2019-03-16T01:34:10.971Z,65.22
2019-03-16T01:36:46.580Z,65.63
2019-03-16T01:39:16.923Z,65.83
2019-03-16T01:41:47.266Z,65.79
2019-03-16T01:44:17.827Z,65.89
2019-03-16T01:46:48.222Z,66.06
2019-03-16T01:49:18.620Z,66.13
2019-03-16T01:51:51.547Z,66.36
2019-03-16T01:54:22.003Z,66.41
2019-03-16T01:56:52.463Z,66.34
2019-03-16T01:59:23.231Z,66.21
2019-03-16T02:01:57.423Z,66.08
2019-03-16T02:04:28.167Z,66.16
2019-03-16T02:07:01.061Z,66.06
2019-03-16T02:09:31.382Z,65.99
2019-03-16T02:12:01.745Z,66.12
2019-03-16T02:14:32.212Z,65.70
2019-03-16T02:17:02.689Z,65.47
2019-03-16T02:19:35.993Z,65.47
2019-03-16T02:22:05.686Z,65.17
2019-03-16T02:24:37.404Z,65.06
2019-03-16T02:27:08.009Z,65.04
2019-03-16T02:29:38.930Z,65.07
2019-03-16T02:32:09.568Z,65.00
2019-03-16T02:34:40.531Z,64.96
2019-03-16T02:37:11.010Z,64.96
2019-03-16T02:39:43.096Z,65.15
2019-03-16T02:42:13.501Z,65.29
2019-03-16T02:44:46.078Z,65.47
2019-03-16T02:47:16.681Z,65.22
2019-03-16T02:49:47.632Z,65.05
2019-03-16T02:52:18.014Z,64.98
2019-03-16T02:54:48.343Z,65.19
2019-03-16T02:57:18.732Z,65.24
2019-03-16T02:59:49.103Z,65.24
2019-03-16T03:02:19.474Z,65.25
2019-03-16T03:04:52.254Z,64.95
2019-03-16T03:07:22.725Z,64.70
2019-03-16T03:09:55.952Z,64.63
2019-03-16T03:12:26.407Z,64.17
2019-03-16T03:14:56.745Z,64.09
2019-03-16T03:17:28.381Z,63.81
2019-03-16T03:19:58.757Z,63.61
2019-03-16T03:22:29.536Z,63.17
2019-03-16T03:24:59.976Z,62.92
2019-03-16T03:27:30.744Z,62.65
2019-03-16T03:30:01.305Z,62.80
2019-03-16T03:32:32.971Z,62.34
2019-03-16T03:35:03.585Z,61.61
2019-03-16T03:37:33.913Z,61.39
2019-03-16T03:40:04.927Z,61.15
2019-03-16T03:42:35.507Z,60.38
2019-03-16T03:45:06.792Z,60.36
2019-03-16T03:47:39.634Z,60.09
2019-03-16T03:50:10.221Z,59.79
2019-03-16T03:52:42.260Z,59.72
2019-03-16T03:55:15.797Z,59.71
2019-03-16T03:57:48.209Z,59.59
2019-03-16T04:00:18.815Z,59.07
2019-03-16T04:02:51.301Z,59.33
2019-03-16T04:05:21.919Z,59.35
2019-03-16T04:07:52.645Z,59.10
2019-03-16T04:10:23.059Z,58.99
2019-03-16T04:12:53.487Z,58.96
2019-03-16T04:15:23.916Z,58.58
2019-03-16T04:17:57.389Z,58.63
2019-03-16T04:20:30.389Z,58.80
2019-03-16T04:23:00.722Z,58.92
2019-03-16T04:25:33.230Z,59.15
2019-03-16T04:28:03.630Z,59.42
2019-03-16T04:30:34.365Z,59.54
2019-03-16T04:33:05.504Z,59.87
2019-03-16T04:35:37.787Z,60.19
2019-03-16T04:38:08.116Z,60.73
2019-03-16T04:40:38.524Z,60.97
2019-03-16T04:43:09.048Z,61.44
2019-03-16T04:45:41.055Z,61.73
2019-03-16T04:48:11.490Z,62.05
2019-03-16T04:50:41.704Z,62.43
2019-03-16T04:53:12.038Z,62.77
2019-03-16T04:55:42.459Z,63.04
2019-03-16T04:58:12.806Z,63.66
2019-03-16T05:00:43.214Z,63.65
2019-03-16T05:03:14.158Z,64.17
2019-03-16T05:05:45.094Z,64.07
2019-03-16T05:08:15.940Z,63.99
2019-03-16T05:10:46.471Z,64.20
2019-03-16T05:13:18.655Z,64.11
2019-03-16T05:15:51.293Z,64.15
2019-03-16T05:18:21.862Z,64.49
2019-03-16T05:20:52.337Z,64.37
2019-03-16T05:23:25.994Z,64.13
2019-03-16T05:25:58.540Z,63.98
2019-03-16T05:28:30.127Z,64.05
2019-03-16T05:31:03.203Z,63.97
2019-03-16T05:33:33.915Z,63.84
2019-03-16T05:36:05.467Z,63.71
2019-03-16T05:38:37.078Z,63.75
2019-03-16T05:41:07.486Z,63.95
2019-03-16T05:43:37.808Z,64.14
2019-03-16T05:46:08.192Z,64.00
2019-03-16T05:48:38.467Z,63.91
2019-03-16T05:51:08.990Z,63.87
2019-03-16T05:53:39.286Z,63.59
2019-03-16T05:56:14.743Z,63.50
2019-03-16T05:58:45.087Z,63.40
2019-03-16T06:01:18.786Z,63.25
2019-03-16T06:03:49.886Z,63.20
2019-03-16T06:06:22.756Z,63.11
2019-03-16T06:08:53.167Z,63.06
2019-03-16T06:11:23.488Z,62.99
2019-03-16T06:13:53.906Z,62.80
2019-03-16T06:16:24.682Z,62.76
2019-03-16T06:18:55.196Z,62.98
2019-03-16T06:21:28.362Z,62.78
2019-03-16T06:23:58.931Z,62.44
2019-03-16T06:26:32.530Z,62.02
2019-03-16T06:29:05.952Z,61.89
2019-03-16T06:31:36.390Z,61.34
2019-03-16T06:34:06.715Z,61.04
2019-03-16T06:36:37.768Z,60.44
2019-03-16T06:39:13.298Z,59.42
2019-03-16T06:41:43.874Z,58.80
2019-03-16T06:44:14.210Z,58.04
2019-03-16T06:46:47.101Z,57.42
2019-03-16T06:49:19.189Z,57.11
2019-03-16T06:51:49.473Z,57.15
2019-03-16T06:54:21.427Z,57.28
2019-03-16T06:57:03.318Z,57.63
2019-03-16T06:59:36.575Z,58.03
2019-03-16T07:02:07.430Z,59.27
2019-03-16T07:04:50.140Z,60.40
2019-03-16T07:07:24.084Z,61.26
2019-03-16T07:09:56.314Z,62.29
2019-03-16T07:12:35.013Z,63.08
2019-03-16T07:15:06.924Z,64.12
2019-03-16T07:17:37.567Z,64.83
2019-03-16T07:20:08.107Z,65.26
2019-03-16T07:22:38.851Z,66.39
2019-03-16T07:25:12.135Z,66.99
2019-03-16T07:27:43.610Z,67.61
2019-03-16T07:30:14.230Z,68.44
2019-03-16T07:32:44.687Z,69.82
2019-03-16T07:35:15.055Z,70.88
2019-03-16T07:37:45.430Z,70.41
2019-03-16T07:40:15.992Z,71.59
2019-03-16T07:42:46.597Z,71.50
2019-03-16T07:45:16.799Z,70.72
2019-03-16T07:47:47.231Z,70.93
2019-03-16T07:50:19.954Z,72.71
2019-03-16T07:52:49.930Z,72.24
2019-03-16T07:55:22.019Z,72.46
2019-03-16T07:57:52.961Z,72.92
2019-03-16T08:00:23.408Z,72.53
2019-03-16T08:02:54.733Z,72.79
2019-03-16T08:05:24.949Z,72.60
2019-03-16T08:08:01.114Z,73.60
2019-03-16T08:10:31.730Z,72.78
2019-03-16T08:13:02.255Z,73.63
2019-03-16T08:15:32.480Z,73.35
2019-03-16T08:18:03.231Z,73.71
2019-03-16T08:20:35.680Z,73.77
2019-03-16T08:23:07.723Z,73.16
2019-03-16T08:25:38.038Z,74.16
2019-03-16T08:28:08.366Z,72.95
2019-03-16T08:30:38.834Z,73.62
2019-03-16T08:33:09.262Z,74.36
2019-03-16T08:35:39.815Z,72.60
2019-03-16T08:38:11.830Z,72.99
2019-03-16T08:40:43.737Z,74.27
2019-03-16T08:43:17.141Z,74.51
2019-03-16T08:45:47.505Z,72.83
2019-03-16T08:48:23.150Z,72.95
2019-03-16T08:50:50.141Z,72.98
2019-03-16T08:53:22.748Z,74.38
2019-03-16T08:55:52.508Z,74.02
2019-03-16T08:58:24.772Z,72.75
2019-03-16T09:00:54.960Z,74.00
2019-03-16T09:03:25.222Z,71.93
2019-03-16T09:05:56.496Z,72.25
2019-03-16T09:08:29.022Z,71.67
2019-03-16T09:10:59.212Z,73.84
2019-03-16T09:13:34.408Z,73.81
2019-03-16T09:16:04.638Z,72.75
2019-03-16T09:18:34.914Z,73.68
2019-03-16T09:21:07.328Z,72.43
2019-03-16T09:23:37.303Z,72.83
2019-03-16T09:26:08.062Z,74.32
2019-03-16T09:28:38.362Z,73.21
2019-03-16T09:31:11.062Z,73.06
2019-03-16T09:33:41.360Z,73.32
2019-03-16T09:36:11.516Z,74.42
2019-03-16T09:38:41.761Z,73.45
2019-03-16T09:41:15.769Z,73.24
2019-03-16T09:43:47.702Z,73.03
2019-03-16T09:46:18.974Z,72.87
2019-03-16T09:48:49.456Z,72.75
2019-03-16T09:51:19.648Z,71.81
2019-03-16T09:53:49.992Z,72.60
2019-03-16T09:56:20.858Z,72.04
2019-03-16T09:58:53.453Z,71.94
2019-03-16T10:01:27.586Z,71.30
2019-03-16T10:03:58.019Z,71.50
2019-03-16T10:06:28.279Z,69.77
2019-03-16T10:08:58.476Z,70.13
2019-03-16T10:11:28.960Z,70.56
2019-03-16T10:13:59.222Z,70.23
2019-03-16T10:16:31.844Z,70.60
2019-03-16T10:19:03.248Z,70.35
2019-03-16T10:21:33.476Z,70.28
2019-03-16T10:24:04.593Z,69.65
2019-03-16T10:26:37.428Z,71.00
2019-03-16T10:29:10.486Z,70.13
2019-03-16T10:31:40.714Z,69.93
2019-03-16T10:34:15.753Z,69.80
2019-03-16T10:36:45.998Z,70.59
2019-03-16T10:39:17.657Z,70.34
2019-03-16T10:41:49.589Z,70.46
2019-03-16T10:44:19.842Z,71.72
2019-03-16T10:46:50.045Z,72.10
2019-03-16T10:49:20.321Z,71.80
2019-03-16T10:51:57.260Z,71.69
2019-03-16T10:54:31.256Z,72.98
2019-03-16T10:57:04.484Z,72.81
2019-03-16T10:59:35.029Z,72.58
2019-03-16T11:02:07.269Z,72.58
2019-03-16T11:04:37.678Z,72.73
2019-03-16T11:07:08.079Z,72.62
2019-03-16T11:09:38.350Z,73.95
2019-03-16T11:12:08.503Z,75.82
2019-03-16T11:14:41.509Z,74.51
2019-03-16T11:17:16.035Z,74.76
2019-03-16T11:19:46.235Z,74.35
2019-03-16T11:22:19.325Z,74.65
2019-03-16T11:24:51.019Z,75.83
2019-03-16T11:27:21.328Z,76.14
2019-03-16T11:29:55.139Z,76.25
2019-03-16T11:32:26.814Z,75.36
2019-03-16T11:35:00.971Z,75.03
2019-03-16T11:37:31.249Z,75.24
2019-03-16T11:40:03.028Z,75.81
2019-03-16T11:42:34.594Z,75.69
2019-03-16T11:45:05.148Z,75.19
2019-03-16T11:47:35.392Z,75.96
2019-03-16T11:50:09.052Z,75.42
2019-03-16T11:52:39.451Z,76.01
2019-03-16T11:55:10.074Z,76.39
2019-03-16T11:57:41.471Z,77.42
2019-03-16T12:00:12.140Z,77.54
2019-03-16T12:02:43.583Z,77.18
2019-03-16T12:05:16.233Z,77.02
2019-03-16T12:07:50.333Z,77.17
2019-03-16T12:10:20.603Z,77.01
2019-03-16T12:12:51.179Z,77.70
2019-03-16T12:15:21.599Z,77.39
2019-03-16T12:17:51.974Z,78.12
2019-03-16T12:20:24.355Z,78.24
2019-03-16T12:22:54.601Z,77.75
2019-03-16T12:25:25.314Z,77.57
2019-03-16T12:27:55.763Z,78.00
2019-03-16T12:30:26.057Z,78.29
2019-03-16T12:32:56.614Z,78.94
2019-03-16T12:35:38.859Z,78.86
2019-03-16T12:38:09.016Z,79.02
2019-03-16T12:40:40.436Z,79.08
2019-03-16T12:43:10.587Z,79.81
2019-03-16T12:45:41.380Z,80.14
2019-03-16T12:48:15.218Z,80.88
2019-03-16T12:50:46.559Z,81.52
2019-03-16T12:53:17.096Z,81.43
2019-03-16T12:55:50.197Z,82.42
2019-03-16T12:58:22.467Z,83.60
2019-03-16T13:00:52.753Z,83.75
2019-03-16T13:03:24.532Z,83.27
2019-03-16T13:05:59.049Z,83.27
2019-03-16T13:08:29.662Z,83.36
2019-03-16T13:10:59.952Z,82.59
2019-03-16T13:13:33.942Z,82.95
2019-03-16T13:16:07.136Z,81.91
2019-03-16T13:18:41.444Z,81.89
2019-03-16T13:21:16.016Z,81.17
2019-03-16T13:23:50.974Z,81.65
2019-03-16T13:26:23.501Z,81.28
2019-03-16T13:29:04.980Z,80.68
2019-03-16T13:31:41.455Z,80.67
2019-03-16T13:34:17.976Z,80.12
2019-03-16T13:36:51.508Z,80.13
2019-03-16T13:39:24.358Z,79.41
2019-03-16T13:41:54.715Z,79.90
2019-03-16T13:44:25.268Z,79.30
2019-03-16T13:46:58.924Z,78.23
2019-03-16T13:49:30.145Z,77.60
2019-03-16T13:52:02.986Z,77.64
2019-03-16T13:54:35.973Z,77.53
2019-03-16T13:57:06.491Z,77.59
2019-03-16T13:59:36.858Z,77.78
2019-03-16T14:02:07.160Z,77.09
2019-03-16T14:04:40.362Z,76.60
2019-03-16T14:07:10.752Z,76.92
2019-03-16T14:09:41.138Z,77.00
2019-03-16T14:12:11.590Z,76.92
2019-03-16T14:14:42.492Z,76.54
2019-03-16T14:17:13.126Z,76.27
2019-03-16T14:19:44.519Z,75.84
2019-03-16T14:22:16.685Z,75.92
2019-03-16T14:24:48.009Z,75.52
2019-03-16T14:27:18.477Z,75.24
2019-03-16T14:29:48.964Z,75.06
2019-03-16T14:32:19.322Z,75.08
2019-03-16T14:34:49.770Z,74.89
2019-03-16T14:37:20.883Z,74.83
2019-03-16T14:39:51.152Z,74.54
2019-03-16T14:42:22.430Z,74.31
2019-03-16T14:44:53.425Z,73.87
2019-03-16T14:47:26.797Z,74.37
2019-03-16T14:49:58.136Z,73.90
2019-03-16T14:52:31.959Z,73.78
2019-03-16T14:55:02.279Z,73.78
2019-03-16T14:57:33.918Z,74.10
2019-03-16T15:00:04.649Z,73.52
2019-03-16T15:02:35.667Z,72.92
2019-03-16T15:05:06.302Z,72.00
2019-03-16T15:07:41.057Z,71.78
2019-03-16T15:10:11.617Z,71.50
2019-03-16T15:12:42.342Z,71.10
2019-03-16T15:15:14.199Z,70.54
2019-03-16T15:17:47.437Z,70.53
2019-03-16T15:20:17.915Z,70.15
2019-03-16T15:22:48.359Z,70.30
2019-03-16T15:25:19.846Z,69.99
2019-03-16T15:27:50.317Z,69.70
2019-03-16T15:30:21.406Z,69.55
2019-03-16T15:32:53.698Z,69.70
2019-03-16T15:35:25.592Z,69.71
2019-03-16T15:37:58.965Z,69.88
2019-03-16T15:40:29.399Z,69.89
2019-03-16T15:43:00.168Z,70.18
2019-03-16T15:45:30.965Z,69.67
2019-03-16T15:48:01.153Z,69.93
2019-03-16T15:50:31.520Z,69.77
2019-03-16T15:53:03.244Z,70.05
2019-03-16T15:55:34.576Z,69.96
2019-03-16T15:58:08.488Z,69.88
2019-03-16T16:00:38.315Z,69.89
2019-03-16T16:03:10.567Z,69.75
2019-03-16T16:05:44.881Z,70.13
2019-03-16T16:08:15.377Z,70.65
2019-03-16T16:10:45.881Z,71.12
2019-03-16T16:13:16.311Z,71.19
2019-03-16T16:15:47.107Z,71.02
2019-03-16T16:18:17.468Z,71.43
2019-03-16T16:20:48.175Z,72.00
2019-03-16T16:23:19.845Z,71.92
2019-03-16T16:25:50.206Z,72.02
2019-03-16T16:28:20.604Z,71.59
2019-03-16T16:30:51.920Z,71.62
2019-03-16T16:33:23.442Z,71.65
2019-03-16T16:35:54.096Z,71.37
2019-03-16T16:38:24.399Z,71.42
2019-03-16T16:40:55.365Z,71.02
2019-03-16T16:43:28.839Z,71.37
2019-03-16T16:45:59.087Z,70.87
2019-03-16T16:48:29.404Z,70.93
2019-03-16T16:50:59.605Z,70.11
2019-03-16T16:53:30.159Z,69.81
2019-03-16T16:56:00.432Z,69.53
2019-03-16T16:58:30.658Z,68.50
2019-03-16T17:01:02.939Z,67.89
2019-03-16T17:03:33.395Z,67.10
2019-03-16T17:06:03.549Z,66.74
2019-03-16T17:08:33.995Z,66.49
2019-03-16T17:11:04.334Z,65.94
2019-03-16T17:13:35.855Z,65.92
2019-03-16T17:16:11.332Z,65.68
2019-03-16T17:18:43.330Z,65.51
2019-03-16T17:21:13.596Z,65.52
2019-03-16T17:23:46.922Z,65.44
2019-03-16T17:26:17.381Z,65.52
2019-03-16T17:28:51.566Z,65.57
2019-03-16T17:31:21.778Z,65.07
2019-03-16T17:33:52.050Z,65.12
2019-03-16T17:36:22.606Z,64.84
2019-03-16T17:38:54.450Z,64.82
2019-03-16T17:41:24.683Z,64.71
2019-03-16T17:43:56.227Z,64.50
2019-03-16T17:46:26.503Z,64.88
2019-03-16T17:48:56.815Z,64.09
2019-03-16T17:51:27.098Z,64.06
2019-03-16T17:53:57.219Z,64.25
2019-03-16T17:56:27.431Z,64.10
2019-03-16T17:58:57.856Z,63.85
2019-03-16T18:01:30.836Z,63.87
2019-03-16T18:04:01.228Z,63.39
2019-03-16T18:06:31.631Z,63.36
2019-03-16T18:09:02.201Z,63.19
2019-03-16T18:11:36.098Z,62.81
2019-03-16T18:14:08.114Z,62.68
2019-03-16T18:16:38.348Z,62.33
2019-03-16T18:19:10.234Z,62.07
2019-03-16T18:21:40.505Z,62.10
2019-03-16T18:24:10.894Z,62.37
2019-03-16T18:26:41.407Z,62.01
2019-03-16T18:29:13.410Z,61.86
2019-03-16T18:31:43.800Z,61.95
2019-03-16T18:34:18.481Z,61.48
2019-03-16T18:36:49.849Z,61.62
2019-03-16T18:39:21.100Z,61.66
2019-03-16T18:41:52.938Z,61.69
2019-03-16T18:44:23.209Z,61.49
2019-03-16T18:46:53.322Z,62.08
2019-03-16T18:49:23.552Z,61.52
2019-03-16T18:51:56.150Z,62.38
2019-03-16T18:54:26.341Z,62.20
2019-03-16T18:56:59.564Z,61.95
2019-03-16T18:59:29.819Z,62.27
2019-03-16T19:02:00.072Z,62.08
2019-03-16T19:04:30.316Z,62.06
2019-03-16T19:07:00.695Z,62.06
2019-03-16T19:09:31.175Z,62.35
2019-03-16T19:12:01.311Z,62.38
2019-03-16T19:14:32.155Z,62.28
2019-03-16T19:17:03.491Z,62.66
2019-03-16T19:19:33.671Z,62.29
2019-03-16T19:22:03.918Z,61.93
2019-03-16T19:24:34.220Z,62.07
2019-03-16T19:27:04.501Z,61.65
2019-03-16T19:29:34.949Z,61.28
2019-03-16T19:32:05.123Z,61.53
2019-03-16T19:34:37.119Z,61.68
2019-03-16T19:37:07.333Z,61.31
2019-03-16T19:39:37.804Z,61.36
2019-03-16T19:42:07.967Z,61.65
2019-03-16T19:44:39.387Z,61.39
2019-03-16T19:47:09.595Z,61.64
2019-03-16T19:49:40.095Z,61.54
2019-03-16T19:52:14.901Z,61.27
2019-03-16T19:54:45.399Z,61.20
2019-03-16T19:57:16.477Z,61.01
2019-03-16T19:59:50.045Z,61.13
2019-03-16T20:02:24.403Z,61.36
2019-03-16T20:04:54.665Z,61.25
2019-03-16T20:07:27.081Z,60.46
2019-03-16T20:09:58.899Z,60.80
2019-03-16T20:12:28.991Z,60.43
2019-03-16T20:14:59.078Z,60.13
2019-03-16T20:17:29.295Z,59.95
2019-03-16T20:20:01.751Z,60.08
2019-03-16T20:22:36.137Z,60.15
2019-03-16T20:25:13.340Z,59.69
2019-03-16T20:27:44.625Z,59.60
2019-03-16T20:30:14.967Z,59.47
2019-03-16T20:32:48.551Z,59.39
2019-03-16T20:35:17.017Z,59.64
2019-03-16T20:37:49.317Z,59.52
2019-03-16T20:40:19.382Z,59.21
2019-03-16T20:42:49.562Z,59.24
2019-03-16T20:45:19.880Z,59.05
2019-03-16T20:47:51.687Z,59.57
2019-03-16T20:50:23.935Z,59.03
2019-03-16T20:52:54.064Z,59.11
2019-03-16T20:55:27.246Z,59.16
2019-03-16T20:57:57.391Z,58.73
2019-03-16T21:00:27.564Z,58.96
2019-03-16T21:03:00.249Z,59.31
2019-03-16T21:05:35.437Z,58.62
2019-03-16T21:08:05.649Z,58.42
2019-03-16T21:10:35.754Z,58.85
2019-03-16T21:13:05.958Z,59.28
2019-03-16T21:15:36.125Z,59.75
2019-03-16T21:18:06.398Z,59.01
2019-03-16T21:20:39.540Z,59.12
2019-03-16T21:23:09.767Z,59.34
2019-03-16T21:25:39.902Z,59.06
2019-03-16T21:28:11.313Z,59.27
2019-03-16T21:30:42.629Z,59.17
2019-03-16T21:33:28.611Z,59.06
2019-03-16T21:35:50.547Z,59.14
2019-03-16T21:38:20.765Z,59.91
2019-03-16T21:40:50.895Z,59.50
2019-03-16T21:43:21.225Z,59.46
2019-03-16T21:45:57.719Z,59.35
2019-03-16T21:48:29.370Z,59.27
2019-03-16T21:51:03.420Z,59.61
2019-03-16T21:53:35.194Z,59.63
2019-03-16T21:56:05.466Z,59.77
2019-03-16T21:58:36.330Z,59.63
2019-03-16T22:01:06.608Z,60.02
2019-03-16T22:03:41.911Z,59.73
2019-03-16T22:06:08.946Z,59.78
2019-03-16T22:08:39.092Z,59.93
2019-03-16T22:11:12.342Z,60.15
2019-03-16T22:13:42.432Z,60.26
2019-03-16T22:16:15.368Z,60.48
2019-03-16T22:18:45.554Z,60.41
2019-03-16T22:21:21.501Z,60.82
2019-03-16T22:23:54.411Z,60.34
2019-03-16T22:26:24.498Z,61.15
2019-03-16T22:28:54.662Z,60.15
2019-03-16T22:31:24.915Z,60.54
2019-03-16T22:33:55.123Z,60.54
2019-03-16T22:36:27.297Z,60.83
2019-03-16T22:38:58.602Z,59.97
2019-03-16T22:41:28.742Z,60.47
2019-03-16T22:44:00.156Z,60.08
2019-03-16T22:46:30.249Z,60.06
2019-03-16T22:49:00.434Z,59.87
2019-03-16T22:51:30.538Z,59.68
2019-03-16T22:54:00.730Z,60.07
2019-03-16T22:56:30.846Z,60.08
2019-03-16T22:59:03.700Z,60.03
2019-03-16T23:01:33.990Z,59.75
2019-03-16T23:04:07.204Z,59.90
2019-03-16T23:06:36.361Z,59.58
2019-03-16T23:09:08.010Z,59.81
2019-03-16T23:11:42.016Z,60.04
2019-03-16T23:14:12.146Z,59.95
2019-03-16T23:16:45.280Z,59.44
2019-03-16T23:19:15.461Z,59.31
2019-03-16T23:21:46.842Z,59.73
2019-03-16T23:24:19.490Z,59.47
2019-03-16T23:26:50.243Z,59.27
2019-03-16T23:29:20.410Z,59.25
2019-03-16T23:31:50.566Z,59.38
2019-03-16T23:34:20.762Z,59.71
2019-03-16T23:36:51.691Z,59.35
2019-03-16T23:39:24.978Z,59.54
2019-03-16T23:41:55.640Z,59.43
2019-03-16T23:44:27.538Z,59.50
2019-03-16T23:46:59.469Z,59.42
2019-03-16T23:49:29.803Z,59.50
2019-03-16T23:52:00.011Z,59.41
2019-03-16T23:54:30.348Z,59.43
2019-03-16T23:57:00.496Z,59.49
2019-03-16T23:59:30.757Z,59.51
